Time;durP1;ratioP1;P1;durP2;ratioP2;P2;SDS_P1;SDS_P2;PMS_P1;PMS_P2;Temp;Humidity;BMP_temperature;BMP_pressure;BME280_temperature;BME280_humidity;BME280_pressure;Samples;Min_cycle;Max_cycle;Signal;HPM_P1;HPM_P2
2023/07/28 00:01:14;;;;;;;0.10;0.10;;;;;;;;;;5133661;27;20051;-60
2023/07/28 00:03:40;;;;;;;0.10;0.10;;;;;;;;;;5133461;28;20129;-60
2023/07/28 00:06:05;;;;;;;0.10;0.10;;;;;;;;;;5132023;28;20108;-60
2023/07/28 00:08:31;;;;;;;0.10;0.10;;;;;;;;;;5131442;28;20047;-60
2023/07/28 00:10:56;;;;;;;0.10;0.10;;;;;;;;;;5132922;27;20126;-60
2023/07/28 00:13:22;;;;;;;0.20;0.20;;;;;;;;;;5133940;28;20062;-60
2023/07/28 00:15:47;;;;;;;0.10;0.10;;;;;;;;;;5133065;27;20039;-60
2023/07/28 00:18:13;;;;;;;0.10;0.10;;;;;;;;;;5140616;27;20087;-60
2023/07/28 00:20:38;;;;;;;0.10;0.10;;;;;;;;;;5146125;27;20499;-61
2023/07/28 00:23:04;;;;;;;0.10;0.10;;;;;;;;;;5133628;27;20047;-61
2023/07/28 00:25:29;;;;;;;0.10;0.10;;;;;;;;;;5133396;28;20047;-60
2023/07/28 00:27:55;;;;;;;0.10;0.10;;;;;;;;;;5132437;28;20548;-60
2023/07/28 00:30:21;;;;;;;0.10;0.10;;;;;;;;;;5132366;28;20453;-57
2023/07/28 00:32:47;;;;;;;0.10;0.10;;;;;;;;;;5131818;27;20047;-60
2023/07/28 00:35:12;;;;;;;0.20;0.20;;;;;;;;;;5132877;28;20396;-60
2023/07/28 00:37:38;;;;;;;0.20;0.20;;;;;;;;;;5133097;28;20045;-60
2023/07/28 00:40:04;;;;;;;0.10;0.10;;;;;;;;;;5132016;28;20108;-60
2023/07/28 00:42:30;;;;;;;0.20;0.20;;;;;;;;;;5132226;28;20074;-61
2023/07/28 00:44:55;;;;;;;0.10;0.10;;;;;;;;;;5112541;28;20078;-61
2023/07/28 00:47:21;;;;;;;0.10;0.10;;;;;;;;;;5112157;28;20464;-61
2023/07/28 00:49:47;;;;;;;0.10;0.10;;;;;;;;;;5112455;28;20138;-60
2023/07/28 00:52:12;;;;;;;0.10;0.10;;;;;;;;;;5132591;28;20050;-61
2023/07/28 00:54:38;;;;;;;0.10;0.10;;;;;;;;;;5132964;28;20497;-60
2023/07/28 00:57:04;;;;;;;0.10;0.10;;;;;;;;;;5132698;28;20043;-61
2023/07/28 00:59:30;;;;;;;0.10;0.10;;;;;;;;;;5132557;28;20062;-61
2023/07/28 01:01:56;;;;;;;0.20;0.20;;;;;;;;;;5131529;28;20071;-60
2023/07/28 01:04:21;;;;;;;0.10;0.10;;;;;;;;;;5131681;28;20047;-61
2023/07/28 01:06:53;;;;;;;0.10;0.10;;;;;;;;;;5131405;28;20077;-60
2023/07/28 01:09:21;;;;;;;0.10;0.10;;;;;;;;;;5132791;27;20047;-61
2023/07/28 01:12:06;;;;;;;0.10;0.10;;;;;;;;;;5132247;27;20043;-60
2023/07/28 01:14:32;;;;;;;0.20;0.20;;;;;;;;;;5132736;27;20099;-61
2023/07/28 01:16:57;;;;;;;0.10;0.10;;;;;;;;;;5138083;27;20436;-61
2023/07/28 01:19:23;;;;;;;0.10;0.10;;;;;;;;;;5135629;27;20134;-60
2023/07/28 01:21:53;;;;;;;0.10;0.10;;;;;;;;;;5132567;28;20397;-61
2023/07/28 01:24:26;;;;;;;0.10;0.10;;;;;;;;;;5132844;28;20093;-61
2023/07/28 01:26:52;;;;;;;0.20;0.20;;;;;;;;;;5132545;28;20050;-60
2023/07/28 01:29:19;;;;;;;0.43;0.30;;;;;;;;;;5132148;28;20468;-60
2023/07/28 01:31:46;;;;;;;0.10;0.10;;;;;;;;;;5131473;27;20190;-60
2023/07/28 01:34:11;;;;;;;0.10;0.10;;;;;;;;;;5131116;28;20054;-60
2023/07/28 01:36:37;;;;;;;0.10;0.10;;;;;;;;;;5132536;28;20047;-59
2023/07/28 01:39:03;;;;;;;0.10;0.10;;;;;;;;;;5132568;28;20479;-61
2023/07/28 01:41:28;;;;;;;0.20;0.20;;;;;;;;;;5131303;28;20046;-60
2023/07/28 01:43:55;;;;;;;0.20;0.20;;;;;;;;;;5132329;28;20058;-61
2023/07/28 01:46:21;;;;;;;0.20;0.20;;;;;;;;;;5130534;28;20096;-60
2023/07/28 01:48:46;;;;;;;0.10;0.10;;;;;;;;;;5132322;28;20047;-61
2023/07/28 01:51:12;;;;;;;0.10;0.10;;;;;;;;;;5132227;28;20526;-60
2023/07/28 01:53:37;;;;;;;0.10;0.10;;;;;;;;;;5132668;28;20442;-59
2023/07/28 01:56:03;;;;;;;0.10;0.10;;;;;;;;;;5132400;28;20438;-60
2023/07/28 01:58:28;;;;;;;0.20;0.20;;;;;;;;;;5131630;27;20100;-60
2023/07/28 02:00:54;;;;;;;0.20;0.20;;;;;;;;;;5131572;27;20096;-60
2023/07/28 02:03:20;;;;;;;0.20;0.20;;;;;;;;;;5131739;28;20104;-60
2023/07/28 02:05:45;;;;;;;0.20;0.20;;;;;;;;;;5131153;28;20423;-60
2023/07/28 02:08:11;;;;;;;0.20;0.20;;;;;;;;;;5130657;28;20100;-61
2023/07/28 02:10:36;;;;;;;0.10;0.10;;;;;;;;;;5131679;28;20054;-61
2023/07/28 02:13:02;;;;;;;0.10;0.10;;;;;;;;;;5131565;28;20543;-61
2023/07/28 02:15:27;;;;;;;0.10;0.10;;;;;;;;;;5132940;27;20046;-60
2023/07/28 02:17:53;;;;;;;0.10;0.10;;;;;;;;;;5138869;27;20039;-60
2023/07/28 02:20:18;;;;;;;0.20;0.20;;;;;;;;;;5131482;28;20407;-61
2023/07/28 02:22:44;;;;;;;0.20;0.20;;;;;;;;;;5132245;27;20130;-61
2023/07/28 02:25:10;;;;;;;0.10;0.10;;;;;;;;;;5131804;27;20096;-60
2023/07/28 02:27:36;;;;;;;0.20;0.20;;;;;;;;;;5131432;27;20043;-60
2023/07/28 02:30:02;;;;;;;0.10;0.10;;;;;;;;;;5130773;27;20075;-60
2023/07/28 02:32:28;;;;;;;0.20;0.20;;;;;;;;;;5130687;28;20381;-60
2023/07/28 02:34:54;;;;;;;0.20;0.20;;;;;;;;;;5130166;28;20039;-60
2023/07/28 02:37:20;;;;;;;0.20;0.20;;;;;;;;;;5128610;28;20432;-61
2023/07/28 02:39:46;;;;;;;0.20;0.20;;;;;;;;;;5130937;27;20058;-61
2023/07/28 02:42:12;;;;;;;0.15;0.15;;;;;;;;;;5130116;28;20145;-60
2023/07/28 02:44:38;;;;;;;0.10;0.10;;;;;;;;;;5131100;28;20043;-52
2023/07/28 02:47:03;;;;;;;0.10;0.10;;;;;;;;;;5129776;28;20047;-52
2023/07/28 02:49:29;;;;;;;0.15;0.15;;;;;;;;;;5131112;28;20047;-51
2023/07/28 02:51:54;;;;;;;0.20;0.20;;;;;;;;;;5130014;28;20073;-53
2023/07/28 02:54:21;;;;;;;0.20;0.20;;;;;;;;;;5130860;28;20055;-53
2023/07/28 02:56:46;;;;;;;0.15;0.15;;;;;;;;;;5131091;28;20043;-52
2023/07/28 02:59:12;;;;;;;0.10;0.10;;;;;;;;;;5130660;28;20100;-52
2023/07/28 03:01:37;;;;;;;0.20;0.20;;;;;;;;;;5130141;27;20445;-53
2023/07/28 03:04:03;;;;;;;0.10;0.10;;;;;;;;;;5130375;28;20445;-53
2023/07/28 03:06:29;;;;;;;0.20;0.20;;;;;;;;;;5130557;28;20483;-53
2023/07/28 03:08:54;;;;;;;0.20;0.20;;;;;;;;;;5129192;27;20086;-51
2023/07/28 03:11:20;;;;;;;0.10;0.10;;;;;;;;;;5131691;28;20050;-53
2023/07/28 03:13:45;;;;;;;0.10;0.10;;;;;;;;;;5133842;27;20395;-52
2023/07/28 03:16:11;;;;;;;0.20;0.20;;;;;;;;;;5134094;28;20051;-53
2023/07/28 03:18:37;;;;;;;0.10;0.10;;;;;;;;;;5134103;28;20073;-53
2023/07/28 03:21:02;;;;;;;0.15;0.15;;;;;;;;;;5134004;28;20407;-53
2023/07/28 03:23:28;;;;;;;0.10;0.10;;;;;;;;;;5133908;28;20493;-53
2023/07/28 03:25:53;;;;;;;0.10;0.10;;;;;;;;;;5134486;28;20044;-53
2023/07/28 03:28:19;;;;;;;0.20;0.20;;;;;;;;;;5134098;28;20047;-55
2023/07/28 03:30:45;;;;;;;0.20;0.20;;;;;;;;;;5133822;28;20135;-52
2023/07/28 03:33:10;;;;;;;0.20;0.20;;;;;;;;;;5133567;28;20051;-51
2023/07/28 03:35:36;;;;;;;0.10;0.10;;;;;;;;;;5133660;28;20050;-52
2023/07/28 03:38:02;;;;;;;0.10;0.10;;;;;;;;;;5132670;28;20047;-53
2023/07/28 03:40:28;;;;;;;0.20;0.20;;;;;;;;;;5133258;28;20127;-53
2023/07/28 03:42:54;;;;;;;0.10;0.10;;;;;;;;;;5133498;28;20445;-53
2023/07/28 03:45:20;;;;;;;0.10;0.10;;;;;;;;;;5133400;28;20051;-52
2023/07/28 03:47:45;;;;;;;0.10;0.10;;;;;;;;;;5132731;28;20040;-52
2023/07/28 03:50:11;;;;;;;0.10;0.10;;;;;;;;;;5133756;28;20070;-52
2023/07/28 03:52:36;;;;;;;0.17;0.17;;;;;;;;;;5133129;28;20103;-52
2023/07/28 03:55:02;;;;;;;0.10;0.10;;;;;;;;;;5133994;28;20043;-53
2023/07/28 03:57:28;;;;;;;0.10;0.10;;;;;;;;;;5133585;28;20043;-52
2023/07/28 03:59:53;;;;;;;0.10;0.10;;;;;;;;;;5133235;28;20047;-52
2023/07/28 04:02:19;;;;;;;0.20;0.20;;;;;;;;;;5133623;27;20058;-52
2023/07/28 04:04:44;;;;;;;0.10;0.10;;;;;;;;;;5133615;28;20047;-53
2023/07/28 04:07:10;;;;;;;0.20;0.20;;;;;;;;;;5132796;28;20073;-53
2023/07/28 04:09:35;;;;;;;0.17;0.17;;;;;;;;;;5133131;28;20107;-51
2023/07/28 04:12:01;;;;;;;0.10;0.10;;;;;;;;;;5131744;28;20100;-52
2023/07/28 04:14:26;;;;;;;0.20;0.20;;;;;;;;;;5142503;27;20051;-52
2023/07/28 04:16:52;;;;;;;0.10;0.10;;;;;;;;;;5137041;27;20047;-53
2023/07/28 04:19:17;;;;;;;0.10;0.10;;;;;;;;;;5133373;28;20043;-52
2023/07/28 04:21:43;;;;;;;0.10;0.10;;;;;;;;;;5132778;27;20083;-53
2023/07/28 04:24:09;;;;;;;0.10;0.10;;;;;;;;;;5132720;28;20047;-53
2023/07/28 04:26:35;;;;;;;0.10;0.10;;;;;;;;;;5133064;28;20074;-52
2023/07/28 04:29:01;;;;;;;0.10;0.10;;;;;;;;;;5133255;28;20079;-51
2023/07/28 04:31:26;;;;;;;0.10;0.10;;;;;;;;;;5132602;28;20057;-52
2023/07/28 04:33:52;;;;;;;0.10;0.10;;;;;;;;;;5133102;28;20047;-53
2023/07/28 04:36:17;;;;;;;0.10;0.10;;;;;;;;;;5133133;28;20071;-52
2023/07/28 04:38:43;;;;;;;0.10;0.10;;;;;;;;;;5132502;28;20043;-52
2023/07/28 04:41:08;;;;;;;0.10;0.10;;;;;;;;;;5132343;28;20051;-53
2023/07/28 04:43:34;;;;;;;0.10;0.10;;;;;;;;;;5133604;28;20104;-52
2023/07/28 04:45:59;;;;;;;0.20;0.20;;;;;;;;;;5132096;28;20055;-52
2023/07/28 04:48:26;;;;;;;0.10;0.10;;;;;;;;;;5133296;28;20058;-51
2023/07/28 04:50:51;;;;;;;0.10;0.10;;;;;;;;;;5132735;28;20043;-52
2023/07/28 04:53:17;;;;;;;0.20;0.20;;;;;;;;;;5133408;28;20055;-53
2023/07/28 04:55:42;;;;;;;0.10;0.10;;;;;;;;;;5133589;28;20261;-52
2023/07/28 04:58:08;;;;;;;0.20;0.20;;;;;;;;;;5133412;28;20071;-52
2023/07/28 05:00:33;;;;;;;0.10;0.10;;;;;;;;;;5132880;27;20461;-52
2023/07/28 05:02:59;;;;;;;0.10;0.10;;;;;;;;;;5133147;28;20536;-51
2023/07/28 05:05:24;;;;;;;0.10;0.10;;;;;;;;;;5133139;28;20076;-52
2023/07/28 05:07:50;;;;;;;0.10;0.10;;;;;;;;;;5132474;28;20047;-53
2023/07/28 05:10:16;;;;;;;0.17;0.17;;;;;;;;;;5132476;28;20046;-53
2023/07/28 05:12:41;;;;;;;0.20;0.20;;;;;;;;;;5131507;27;20411;-52
2023/07/28 05:15:10;;;;;;;0.20;0.20;;;;;;;;;;5132374;27;20502;-53
2023/07/28 05:17:36;;;;;;;0.15;0.15;;;;;;;;;;5132167;28;20055;-52
2023/07/28 05:20:02;;;;;;;0.10;0.10;;;;;;;;;;5132165;27;20053;-52
2023/07/28 05:22:27;;;;;;;0.10;0.10;;;;;;;;;;5133281;28;20055;-53
2023/07/28 05:24:53;;;;;;;0.10;0.10;;;;;;;;;;5132830;28;20043;-53
2023/07/28 05:27:20;;;;;;;0.13;0.13;;;;;;;;;;5132528;28;20047;-53
2023/07/28 05:29:45;;;;;;;0.20;0.20;;;;;;;;;;5132586;28;20396;-53
2023/07/28 05:32:11;;;;;;;0.10;0.10;;;;;;;;;;5131256;27;20548;-52
2023/07/28 05:34:37;;;;;;;0.10;0.10;;;;;;;;;;5132607;28;20437;-54
2023/07/28 05:37:02;;;;;;;0.10;0.10;;;;;;;;;;5131656;28;20120;-53
2023/07/28 05:39:28;;;;;;;0.10;0.10;;;;;;;;;;5132070;28;20064;-53
2023/07/28 05:41:54;;;;;;;0.10;0.10;;;;;;;;;;5130553;28;20055;-53
2023/07/28 05:44:19;;;;;;;0.10;0.10;;;;;;;;;;5132600;28;20050;-53
2023/07/28 05:46:45;;;;;;;0.10;0.10;;;;;;;;;;5132119;28;20055;-53
2023/07/28 05:49:11;;;;;;;0.20;0.20;;;;;;;;;;5132045;27;20522;-53
2023/07/28 05:51:36;;;;;;;0.10;0.10;;;;;;;;;;5131398;28;20055;-53
2023/07/28 05:54:02;;;;;;;0.10;0.10;;;;;;;;;;5132287;28;20043;-53
2023/07/28 05:56:28;;;;;;;0.20;0.20;;;;;;;;;;5132431;28;20096;-53
2023/07/28 05:58:54;;;;;;;0.10;0.10;;;;;;;;;;5132590;28;20049;-53
2023/07/28 06:01:19;;;;;;;0.20;0.20;;;;;;;;;;5131744;27;20043;-52
2023/07/28 06:03:45;;;;;;;0.10;0.10;;;;;;;;;;5132272;28;20051;-53
2023/07/28 06:06:12;;;;;;;0.20;0.20;;;;;;;;;;5131999;27;20047;-53
2023/07/28 06:08:37;;;;;;;0.20;0.20;;;;;;;;;;5131700;28;20047;-52
2023/07/28 06:11:04;;;;;;;0.10;0.10;;;;;;;;;;5129718;28;20130;-53
2023/07/28 06:13:30;;;;;;;0.10;0.10;;;;;;;;;;5132486;27;20047;-52
2023/07/28 06:15:58;;;;;;;0.10;0.10;;;;;;;;;;5135637;27;20146;-52
2023/07/28 06:18:23;;;;;;;0.20;0.20;;;;;;;;;;5132317;28;20055;-52
2023/07/28 06:20:49;;;;;;;0.10;0.10;;;;;;;;;;5131080;28;20108;-52
2023/07/28 06:23:14;;;;;;;0.20;0.20;;;;;;;;;;5132064;28;20128;-53
2023/07/28 06:25:43;;;;;;;0.20;0.20;;;;;;;;;;5131620;28;20051;-53
2023/07/28 06:28:10;;;;;;;0.20;0.20;;;;;;;;;;5131389;28;20070;-52
2023/07/28 06:30:36;;;;;;;0.10;0.10;;;;;;;;;;5131756;27;20051;-52
2023/07/28 06:33:03;;;;;;;0.10;0.10;;;;;;;;;;5131437;28;20459;-52
2023/07/28 06:35:28;;;;;;;0.10;0.10;;;;;;;;;;5131933;28;20111;-52
2023/07/28 06:37:54;;;;;;;0.10;0.10;;;;;;;;;;5131213;28;20484;-53
2023/07/28 06:40:20;;;;;;;0.20;0.20;;;;;;;;;;5130514;27;20488;-53
2023/07/28 06:42:46;;;;;;;0.20;0.20;;;;;;;;;;5130323;27;20454;-51
2023/07/28 06:45:11;;;;;;;0.20;0.20;;;;;;;;;;5133929;27;20075;-52
2023/07/28 06:47:37;;;;;;;0.10;0.10;;;;;;;;;;5134201;28;20107;-53
2023/07/28 06:50:03;;;;;;;0.17;0.17;;;;;;;;;;5134217;28;20108;-53
2023/07/28 06:52:28;;;;;;;0.20;0.20;;;;;;;;;;5134758;28;20050;-53
2023/07/28 06:54:54;;;;;;;0.20;0.20;;;;;;;;;;5134511;28;20095;-52
2023/07/28 06:57:20;;;;;;;0.10;0.10;;;;;;;;;;5134432;27;20127;-53
2023/07/28 06:59:45;;;;;;;0.10;0.10;;;;;;;;;;5134285;27;20058;-52
2023/07/28 07:02:11;;;;;;;0.10;0.10;;;;;;;;;;5134300;27;20047;-53
2023/07/28 07:04:37;;;;;;;0.15;0.15;;;;;;;;;;5134751;28;20051;-52
2023/07/28 07:07:02;;;;;;;0.20;0.20;;;;;;;;;;5134426;28;20445;-52
2023/07/28 07:09:28;;;;;;;0.20;0.20;;;;;;;;;;5134428;28;20043;-52
2023/07/28 07:11:54;;;;;;;0.20;0.20;;;;;;;;;;5128294;27;20089;-53
2023/07/28 07:14:19;;;;;;;0.10;0.10;;;;;;;;;;5143281;27;20193;-53
2023/07/28 07:16:45;;;;;;;0.20;0.20;;;;;;;;;;5133186;28;20051;-52
2023/07/28 07:19:11;;;;;;;0.20;0.20;;;;;;;;;;5134080;28;20101;-53
2023/07/28 07:21:36;;;;;;;0.20;0.20;;;;;;;;;;5133349;28;20047;-52
2023/07/28 07:24:03;;;;;;;0.10;0.10;;;;;;;;;;5134670;27;20047;-53
2023/07/28 07:26:30;;;;;;;0.20;0.20;;;;;;;;;;5134000;27;20150;-51
2023/07/28 07:28:56;;;;;;;0.20;0.20;;;;;;;;;;5134447;27;20054;-52
2023/07/28 07:31:21;;;;;;;0.20;0.20;;;;;;;;;;5133000;27;20485;-53
2023/07/28 07:33:47;;;;;;;0.10;0.10;;;;;;;;;;5133854;28;20043;-52
2023/07/28 07:36:16;;;;;;;0.20;0.20;;;;;;;;;;5133992;28;20043;-53
2023/07/28 07:38:41;;;;;;;0.17;0.17;;;;;;;;;;5133863;28;20074;-53
2023/07/28 07:41:08;;;;;;;0.20;0.20;;;;;;;;;;5132937;28;20454;-52
2023/07/28 07:43:34;;;;;;;0.10;0.10;;;;;;;;;;5133390;28;20047;-55
2023/07/28 07:45:59;;;;;;;0.20;0.20;;;;;;;;;;5132485;28;20043;-53
2023/07/28 07:48:25;;;;;;;0.20;0.20;;;;;;;;;;5133893;28;20051;-52
2023/07/28 07:50:51;;;;;;;0.10;0.10;;;;;;;;;;5133092;28;20055;-50
2023/07/28 07:53:16;;;;;;;0.17;0.17;;;;;;;;;;5133919;27;20078;-53
2023/07/28 07:55:42;;;;;;;0.20;0.20;;;;;;;;;;5132518;27;20509;-52
2023/07/28 07:58:07;;;;;;;0.10;0.10;;;;;;;;;;5133764;27;20508;-53
2023/07/28 08:00:34;;;;;;;0.15;0.15;;;;;;;;;;5133212;27;20039;-52
2023/07/28 08:02:59;;;;;;;0.10;0.10;;;;;;;;;;5133357;28;20051;-53
2023/07/28 08:05:25;;;;;;;0.20;0.20;;;;;;;;;;5133516;28;20684;-53
2023/07/28 08:07:50;;;;;;;0.20;0.20;;;;;;;;;;5133654;28;20107;-49
2023/07/28 08:10:16;;;;;;;0.10;0.10;;;;;;;;;;5132299;28;20107;-52
2023/07/28 08:12:44;;;;;;;0.20;0.20;;;;;;;;;;5127705;27;20049;-52
2023/07/28 08:15:10;;;;;;;0.20;0.20;;;;;;;;;;5154074;27;20043;-51
2023/07/28 08:17:35;;;;;;;0.20;0.20;;;;;;;;;;5136474;27;20054;-52
2023/07/28 08:20:01;;;;;;;0.20;0.20;;;;;;;;;;5132131;28;20065;-53
2023/07/28 08:22:27;;;;;;;0.20;0.20;;;;;;;;;;5132713;28;20137;-53
2023/07/28 08:24:52;;;;;;;0.20;0.20;;;;;;;;;;5133078;28;20071;-53
2023/07/28 08:27:18;;;;;;;0.10;0.10;;;;;;;;;;5133301;28;20051;-53
2023/07/28 08:29:44;;;;;;;0.20;0.20;;;;;;;;;;5132761;28;20062;-50
2023/07/28 08:32:09;;;;;;;0.10;0.10;;;;;;;;;;5132865;28;20054;-52
2023/07/28 08:34:35;;;;;;;0.20;0.20;;;;;;;;;;5133050;28;20197;-53
2023/07/28 08:37:00;;;;;;;0.20;0.20;;;;;;;;;;5132829;28;20047;-52
2023/07/28 08:39:26;;;;;;;0.20;0.20;;;;;;;;;;5133073;28;20160;-52
2023/07/28 08:41:59;;;;;;;0.20;0.20;;;;;;;;;;5131805;28;20054;-53
2023/07/28 08:44:26;;;;;;;0.17;0.17;;;;;;;;;;5132462;28;20335;-52
2023/07/28 08:46:52;;;;;;;0.20;0.20;;;;;;;;;;5131779;28;20047;-53
2023/07/28 08:49:17;;;;;;;0.20;0.20;;;;;;;;;;5132524;28;20074;-53
2023/07/28 08:51:48;;;;;;;0.20;0.20;;;;;;;;;;5132577;28;20055;-53
2023/07/28 08:54:14;;;;;;;0.10;0.10;;;;;;;;;;5132630;28;20064;-53
2023/07/28 08:56:39;;;;;;;0.20;0.20;;;;;;;;;;5132444;28;20043;-52
2023/07/28 08:59:05;;;;;;;0.17;0.17;;;;;;;;;;5132835;28;20043;-52
2023/07/28 09:01:30;;;;;;;0.10;0.10;;;;;;;;;;5132187;27;20143;-52
2023/07/28 09:03:56;;;;;;;0.20;0.20;;;;;;;;;;5132569;28;20808;-52
2023/07/28 09:06:27;;;;;;;0.20;0.20;;;;;;;;;;5132522;27;20050;-53
2023/07/28 09:08:55;;;;;;;0.10;0.10;;;;;;;;;;5131754;28;20078;-53
2023/07/28 09:11:23;;;;;;;0.20;0.20;;;;;;;;;;5122766;28;20061;-52
2023/07/28 09:13:49;;;;;;;0.20;0.20;;;;;;;;;;5136973;27;20103;-52
2023/07/28 09:16:17;;;;;;;0.10;0.10;;;;;;;;;;5152795;27;20043;-53
2023/07/28 09:18:43;;;;;;;;;;;;;;;;;;5142434;27;20656;-52
2023/07/28 09:21:15;;;;;;;0.15;0.15;;;;;;;;;;5131169;28;20010;-52
2023/07/28 09:23:41;;;;;;;0.20;0.20;;;;;;;;;;5132303;28;20043;-53
2023/07/28 09:26:07;;;;;;;0.10;0.10;;;;;;;;;;5131879;28;20514;-53
2023/07/28 09:28:41;;;;;;;0.20;0.20;;;;;;;;;;5132364;28;20082;-52
2023/07/28 09:31:07;;;;;;;0.20;0.20;;;;;;;;;;5131999;28;20050;-52
2023/07/28 09:33:34;;;;;;;0.20;0.20;;;;;;;;;;5132116;27;20491;-53
2023/07/28 09:36:16;;;;;;;0.20;0.20;;;;;;;;;;5132209;28;20046;-53
2023/07/28 09:38:42;;;;;;;0.20;0.20;;;;;;;;;;5132398;28;20047;-53
2023/07/28 09:41:10;;;;;;;0.20;0.20;;;;;;;;;;5131919;28;20186;-53
2023/07/28 09:43:36;;;;;;;0.10;0.10;;;;;;;;;;5131484;28;20078;-53
2023/07/28 09:46:06;;;;;;;0.20;0.20;;;;;;;;;;5131687;27;20055;-52
2023/07/28 09:48:33;;;;;;;0.13;0.13;;;;;;;;;;5124948;28;20146;-53
2023/07/28 09:51:02;;;;;;;0.20;0.20;;;;;;;;;;5131626;27;20063;-53
2023/07/28 09:53:28;;;;;;;0.10;0.10;;;;;;;;;;5132476;28;20051;-51
2023/07/28 09:55:54;;;;;;;0.20;0.20;;;;;;;;;;5131322;28;20070;-52
2023/07/28 09:58:21;;;;;;;0.20;0.20;;;;;;;;;;5131868;27;20127;-53
2023/07/28 10:00:47;;;;;;;0.20;0.20;;;;;;;;;;5131530;27;20054;-52
2023/07/28 10:03:14;;;;;;;0.20;0.20;;;;;;;;;;5132477;28;20043;-53
2023/07/28 10:05:40;;;;;;;0.10;0.10;;;;;;;;;;5132201;28;20135;-53
2023/07/28 10:08:06;;;;;;;0.20;0.20;;;;;;;;;;5132146;28;20047;-53
2023/07/28 10:10:32;;;;;;;0.10;0.10;;;;;;;;;;5132899;27;20066;-53
2023/07/28 10:12:58;;;;;;;0.13;0.13;;;;;;;;;;5152093;27;20074;-53
2023/07/28 10:15:28;;;;;;;0.20;0.20;;;;;;;;;;5132794;27;20058;-52
2023/07/28 10:17:57;;;;;;;0.20;0.20;;;;;;;;;;5131485;27;20544;-52
2023/07/28 10:20:32;;;;;;;0.17;0.17;;;;;;;;;;5130841;28;20066;-52
2023/07/28 10:23:14;;;;;;;0.10;0.10;;;;;;;;;;5130920;28;20153;-53
2023/07/28 10:25:40;;;;;;;0.17;0.17;;;;;;;;;;5131412;27;20521;-53
2023/07/28 10:28:06;;;;;;;0.20;0.20;;;;;;;;;;5131538;27;20047;-52
2023/07/28 10:30:36;;;;;;;0.20;0.20;;;;;;;;;;5111012;28;20059;-53
2023/07/28 10:33:02;;;;;;;0.20;0.20;;;;;;;;;;5110799;28;20043;-52
2023/07/28 10:35:30;;;;;;;0.17;0.17;;;;;;;;;;5111076;28;20055;-51
2023/07/28 10:37:56;;;;;;;0.20;0.20;;;;;;;;;;5111504;28;20055;-53
2023/07/28 10:40:23;;;;;;;0.20;0.20;;;;;;;;;;5110694;28;20039;-52
2023/07/28 10:42:49;;;;;;;0.20;0.20;;;;;;;;;;5111217;28;20058;-53
2023/07/28 10:45:15;;;;;;;0.10;0.10;;;;;;;;;;5110420;28;20048;-52
2023/07/28 10:47:41;;;;;;;0.20;0.20;;;;;;;;;;5109651;28;20384;-52
2023/07/28 10:50:10;;;;;;;0.20;0.20;;;;;;;;;;5109971;28;20063;-53
2023/07/28 10:52:39;;;;;;;0.20;0.20;;;;;;;;;;5109246;28;20051;-52
2023/07/28 10:55:05;;;;;;;0.20;0.20;;;;;;;;;;5111130;28;20055;-53
2023/07/28 10:57:30;;;;;;;0.20;0.20;;;;;;;;;;5110543;28;20047;-52
2023/07/28 10:59:59;;;;;;;0.10;0.10;;;;;;;;;;5110546;28;20396;-52
2023/07/28 11:02:26;;;;;;;0.20;0.20;;;;;;;;;;5110843;28;20059;-53
2023/07/28 11:04:52;;;;;;;0.20;0.20;;;;;;;;;;5111027;28;20066;-52
2023/07/28 11:07:18;;;;;;;0.20;0.20;;;;;;;;;;5111101;28;20515;-53
2023/07/28 11:09:43;;;;;;;0.20;0.20;;;;;;;;;;5110390;28;20504;-51
2023/07/28 11:12:10;;;;;;;0.10;0.10;;;;;;;;;;5110178;28;20201;-53
2023/07/28 11:14:35;;;;;;;0.10;0.10;;;;;;;;;;5110751;28;20488;-52
2023/07/28 11:17:01;;;;;;;0.20;0.20;;;;;;;;;;5110298;28;20104;-52
2023/07/28 11:19:27;;;;;;;0.20;0.20;;;;;;;;;;5110490;28;20442;-53
2023/07/28 11:21:53;;;;;;;0.10;0.10;;;;;;;;;;5109798;28;20486;-52
2023/07/28 11:24:19;;;;;;;0.20;0.20;;;;;;;;;;5109678;28;20051;-53
2023/07/28 11:26:46;;;;;;;0.20;0.20;;;;;;;;;;5110660;28;20046;-52
2023/07/28 11:29:12;;;;;;;0.20;0.20;;;;;;;;;;5110080;28;20440;-51
2023/07/28 11:31:38;;;;;;;0.20;0.20;;;;;;;;;;5112718;28;20127;-53
2023/07/28 11:34:12;;;;;;;0.20;0.20;;;;;;;;;;5113737;28;20410;-51
2023/07/28 11:36:37;;;;;;;0.20;0.20;;;;;;;;;;5113490;28;20053;-52
2023/07/28 11:39:05;;;;;;;0.17;0.17;;;;;;;;;;5114075;28;20044;-53
2023/07/28 11:41:32;;;;;;;0.20;0.20;;;;;;;;;;5113340;28;20087;-52
2023/07/28 11:43:58;;;;;;;0.20;0.20;;;;;;;;;;5114029;28;20058;-52
2023/07/28 11:46:40;;;;;;;0.20;0.20;;;;;;;;;;5113298;28;20044;-51
2023/07/28 11:49:06;;;;;;;0.20;0.20;;;;;;;;;;5097374;28;20051;-52
2023/07/28 11:51:32;;;;;;;0.20;0.20;;;;;;;;;;5112395;28;20075;-53
2023/07/28 11:53:57;;;;;;;0.20;0.20;;;;;;;;;;5113389;28;20075;-54
2023/07/28 11:56:24;;;;;;;0.20;0.20;;;;;;;;;;5113468;28;20048;-52
2023/07/28 11:58:51;;;;;;;0.20;0.20;;;;;;;;;;5113422;28;20098;-51
2023/07/28 12:01:16;;;;;;;0.20;0.20;;;;;;;;;;5113479;28;20070;-53
2023/07/28 12:03:42;;;;;;;0.20;0.20;;;;;;;;;;5112502;28;20492;-53
2023/07/28 12:06:09;;;;;;;0.20;0.20;;;;;;;;;;5113691;28;20473;-52
2023/07/28 12:08:38;;;;;;;0.20;0.20;;;;;;;;;;5113369;28;20477;-53
2023/07/28 12:11:04;;;;;;;0.20;0.20;;;;;;;;;;5116138;28;20138;-53
2023/07/28 12:13:32;;;;;;;0.20;0.20;;;;;;;;;;5113221;28;20411;-53
2023/07/28 12:15:58;;;;;;;0.10;0.10;;;;;;;;;;5112743;28;20040;-53
2023/07/28 12:18:29;;;;;;;0.20;0.20;;;;;;;;;;5113662;28;20056;-52
2023/07/28 12:20:59;;;;;;;0.20;0.20;;;;;;;;;;5112967;28;20047;-53
2023/07/28 12:23:25;;;;;;;0.20;0.20;;;;;;;;;;5112932;28;20055;-53
2023/07/28 12:25:55;;;;;;;0.10;0.10;;;;;;;;;;5112158;28;20054;-52
2023/07/28 12:28:21;;;;;;;0.20;0.20;;;;;;;;;;5113043;28;20464;-49
2023/07/28 12:30:49;;;;;;;0.10;0.10;;;;;;;;;;5112270;28;20051;-52
2023/07/28 12:33:14;;;;;;;0.20;0.20;;;;;;;;;;5112824;28;20043;-53
2023/07/28 12:35:43;;;;;;;0.20;0.20;;;;;;;;;;5112414;28;20054;-52
2023/07/28 12:38:11;;;;;;;0.10;0.10;;;;;;;;;;5112778;28;20055;-52
2023/07/28 12:40:40;;;;;;;0.15;0.15;;;;;;;;;;5112484;28;20449;-53
2023/07/28 12:43:08;;;;;;;0.20;0.20;;;;;;;;;;5112618;28;20051;-53
2023/07/28 12:45:34;;;;;;;0.20;0.20;;;;;;;;;;5112966;28;20071;-52
2023/07/28 12:48:03;;;;;;;0.20;0.20;;;;;;;;;;5112352;28;20043;-53
2023/07/28 12:50:29;;;;;;;0.20;0.20;;;;;;;;;;5112335;28;20075;-53
2023/07/28 12:53:06;;;;;;;0.20;0.20;;;;;;;;;;5112221;28;20048;-52
2023/07/28 12:55:41;;;;;;;0.20;0.20;;;;;;;;;;5112474;28;20051;-53
2023/07/28 12:58:26;;;;;;;0.10;0.10;;;;;;;;;;5112028;28;20143;-53
2023/07/28 13:00:56;;;;;;;0.10;0.10;;;;;;;;;;5111735;28;20082;-52
2023/07/28 13:03:24;;;;;;;0.20;0.20;;;;;;;;;;5111841;28;20522;-51
2023/07/28 13:05:50;;;;;;;0.20;0.20;;;;;;;;;;5112028;28;20150;-52
2023/07/28 13:08:16;;;;;;;0.20;0.20;;;;;;;;;;5112001;28;20472;-52
2023/07/28 13:10:41;;;;;;;0.17;0.17;;;;;;;;;;5102959;27;20500;-52
2023/07/28 13:13:10;;;;;;;0.20;0.20;;;;;;;;;;5111903;28;20056;-52
2023/07/28 13:15:38;;;;;;;0.10;0.10;;;;;;;;;;5111970;28;20052;-52
2023/07/28 13:18:04;;;;;;;0.10;0.10;;;;;;;;;;5111398;28;20051;-52
2023/07/28 13:20:29;;;;;;;0.20;0.20;;;;;;;;;;5111352;28;20059;-52
2023/07/28 13:22:55;;;;;;;0.20;0.20;;;;;;;;;;5111582;28;20059;-52
2023/07/28 13:25:20;;;;;;;0.20;0.20;;;;;;;;;;5111364;28;20058;-52
2023/07/28 13:27:46;;;;;;;0.10;0.10;;;;;;;;;;5110499;28;20068;-52
2023/07/28 13:30:12;;;;;;;0.20;0.20;;;;;;;;;;5111580;28;20076;-52
2023/07/28 13:32:37;;;;;;;0.13;0.13;;;;;;;;;;5110686;28;20381;-52
2023/07/28 13:35:03;;;;;;;0.20;0.20;;;;;;;;;;5111491;28;20476;-52
2023/07/28 13:37:29;;;;;;;0.15;0.15;;;;;;;;;;5111015;28;20051;-51
2023/07/28 13:39:54;;;;;;;0.20;0.20;;;;;;;;;;5111003;28;20051;-52
2023/07/28 13:42:20;;;;;;;0.13;0.13;;;;;;;;;;5110726;28;20063;-52
2023/07/28 13:44:45;;;;;;;0.10;0.10;;;;;;;;;;5111575;28;20043;-52
2023/07/28 13:47:23;;;;;;;0.10;0.10;;;;;;;;;;5111150;28;20044;-52
2023/07/28 13:49:49;;;;;;;0.20;0.20;;;;;;;;;;5110731;28;20059;-52
2023/07/28 13:52:17;;;;;;;0.13;0.13;;;;;;;;;;5110297;28;20078;-52
2023/07/28 13:54:48;;;;;;;0.20;0.20;;;;;;;;;;5109685;28;20461;-52
2023/07/28 13:57:16;;;;;;;0.10;0.10;;;;;;;;;;5109964;28;20045;-52
2023/07/28 13:59:42;;;;;;;0.20;0.20;;;;;;;;;;5111255;28;20054;-51
2023/07/28 14:02:08;;;;;;;0.20;0.20;;;;;;;;;;5110486;28;20074;-53
2023/07/28 14:04:34;;;;;;;0.10;0.10;;;;;;;;;;5111209;28;20058;-53
2023/07/28 14:06:59;;;;;;;0.20;0.20;;;;;;;;;;5110778;28;20676;-52
2023/07/28 14:09:25;;;;;;;0.20;0.20;;;;;;;;;;5111415;28;20039;-52
2023/07/28 14:11:50;;;;;;;0.10;0.10;;;;;;;;;;5113019;28;20055;-52
2023/07/28 14:14:16;;;;;;;0.10;0.10;;;;;;;;;;5110744;28;20040;-52
2023/07/28 14:16:42;;;;;;;0.10;0.10;;;;;;;;;;5110333;28;20445;-52
2023/07/28 14:19:08;;;;;;;0.20;0.20;;;;;;;;;;5110832;28;20054;-51
2023/07/28 14:21:33;;;;;;;0.20;0.20;;;;;;;;;;5110224;28;20047;-52
2023/07/28 14:24:01;;;;;;;0.13;0.13;;;;;;;;;;5111147;28;20048;-52
2023/07/28 14:26:27;;;;;;;0.20;0.20;;;;;;;;;;5110832;28;20051;-52
2023/07/28 14:28:52;;;;;;;0.20;0.20;;;;;;;;;;5110077;28;20047;-52
2023/07/28 14:31:18;;;;;;;0.20;0.20;;;;;;;;;;5110490;28;20075;-52
2023/07/28 14:33:44;;;;;;;0.20;0.20;;;;;;;;;;5110563;28;20055;-52
2023/07/28 14:36:09;;;;;;;0.20;0.20;;;;;;;;;;5110819;28;20070;-52
2023/07/28 14:38:35;;;;;;;0.20;0.20;;;;;;;;;;5111136;28;20396;-52